Time;durP1;ratioP1;P1;durP2;ratioP2;P2;SDS_P1;SDS_P2;PMS_P1;PMS_P2;Temp;Humidity;BMP_temperature;BMP_pressure;BME280_temperature;BME280_humidity;BME280_pressure;Samples;Min_cycle;Max_cycle;Signal;HPM_P1;HPM_P2
2022/06/05 00:00:22;;;;;;;9.17;4.10;;;19.20;1.00;;;;;;5028042;28;20463;-81
2022/06/05 00:03:19;;;;;;;5.17;3.70;;;19.20;1.00;;;;;;5025243;28;20452;-83
2022/06/05 00:05:59;;;;;;;4.50;3.73;;;19.20;1.00;;;;;;5003187;28;20556;-83
2022/06/05 00:08:42;;;;;;;5.20;3.43;;;19.00;1.00;;;;;;5015348;28;20460;-81
2022/06/05 00:11:13;;;;;;;5.47;3.43;;;19.10;1.00;;;;;;5022946;28;20515;-82
2022/06/05 00:13:45;;;;;;;4.80;3.97;;;19.00;1.00;;;;;;5022285;28;20464;-84
2022/06/05 00:16:15;;;;;;;5.10;4.57;;;19.00;1.00;;;;;;5023277;28;20494;-83
2022/06/05 00:18:46;;;;;;;5.53;4.00;;;19.00;1.00;;;;;;5022115;28;20459;-84
2022/06/05 00:21:16;;;;;;;5.00;4.40;;;19.00;1.00;;;;;;5022317;28;20541;-84
2022/06/05 00:23:46;;;;;;;6.27;4.27;;;19.00;1.00;;;;;;5022845;28;20445;-82
2022/06/05 00:26:24;;;;;;;4.13;3.40;;;19.00;1.00;;;;;;5025308;28;20536;-81
2022/06/05 00:29:07;;;;;;;7.20;4.37;;;18.90;1.00;;;;;;5020699;28;20473;-82
2022/06/05 00:31:41;;;;;;;7.23;4.50;;;18.90;1.00;;;;;;5021532;28;20557;-82
2022/06/05 00:34:12;;;;;;;4.03;3.63;;;18.80;1.00;;;;;;5019097;28;20462;-82
2022/06/05 00:36:53;;;;;;;5.30;4.33;;;18.80;1.00;;;;;;5022910;28;20564;-82
2022/06/05 00:39:28;;;;;;;5.60;3.90;;;18.80;1.00;;;;;;5024730;28;20468;-82
2022/06/05 00:41:59;;;;;;;4.47;3.70;;;18.70;1.00;;;;;;5025110;28;20482;-82
2022/06/05 00:44:50;;;;;;;6.63;4.50;;;18.70;1.00;;;;;;5025448;28;20452;-81
2022/06/05 00:47:32;;;;;;;5.10;4.47;;;18.70;1.00;;;;;;5021183;28;20481;-80
2022/06/05 00:50:09;;;;;;;6.43;4.67;;;18.60;6.40;;;;;;5023051;28;20539;-81
2022/06/05 00:52:38;;;;;;;5.00;4.50;;;18.60;1.00;;;;;;5022917;28;20553;-81
2022/06/05 00:55:11;;;;;;;5.10;4.20;;;18.50;99.90;;;;;;5024474;28;20458;-83
2022/06/05 00:57:39;;;;;;;8.40;4.00;;;18.40;99.90;;;;;;5023544;28;20494;-82
2022/06/05 01:00:30;;;;;;;7.23;4.80;;;18.40;1.00;;;;;;5023652;28;20882;-82
2022/06/05 01:03:01;;;;;;;4.80;4.00;;;18.40;99.90;;;;;;5024753;28;20505;-82
2022/06/05 01:05:30;;;;;;;6.07;4.50;;;18.30;99.90;;;;;;5027867;28;20831;-83
2022/06/05 01:07:58;;;;;;;7.07;4.60;;;18.30;99.90;;;;;;5026129;28;20523;-81
2022/06/05 01:10:35;;;;;;;5.70;4.30;;;18.30;99.90;;;;;;5024969;28;20497;-82
2022/06/05 01:13:13;;;;;;;8.33;5.13;;;18.30;99.90;;;;;;5027928;28;20454;-84
2022/06/05 01:15:52;;;;;;;4.63;3.87;;;18.20;99.90;;;;;;5026595;28;21205;-82
2022/06/05 01:18:27;;;;;;;4.87;4.17;;;18.20;99.90;;;;;;5029074;28;20492;-81
2022/06/05 01:21:10;;;;;;;5.10;4.57;;;18.20;99.90;;;;;;5025513;28;21001;-82
2022/06/05 01:23:49;;;;;;;6.23;5.63;;;18.10;99.90;;;;;;5026044;28;20523;-83
2022/06/05 01:26:56;;;;;;;8.07;5.03;;;18.10;99.90;;;;;;5026370;28;20593;-82
2022/06/05 01:29:27;;;;;;;6.17;4.97;;;17.90;99.90;;;;;;5025423;28;20447;-81
2022/06/05 01:31:57;;;;;;;5.87;4.40;;;17.90;99.90;;;;;;5025478;28;20464;-82
2022/06/05 01:34:30;;;;;;;7.10;5.27;;;18.00;99.90;;;;;;5025603;28;20449;-82
2022/06/05 01:37:04;;;;;;;7.17;5.43;;;18.00;99.90;;;;;;5025510;28;20466;-82
2022/06/05 01:39:36;;;;;;;6.53;4.63;;;17.90;99.90;;;;;;5024588;28;20517;-82
2022/06/05 01:42:11;;;;;;;6.17;4.43;;;18.00;99.90;;;;;;5022786;28;20471;-82
2022/06/05 01:44:40;;;;;;;6.70;5.17;;;17.90;99.90;;;;;;5026469;28;20879;-82
2022/06/05 01:47:12;;;;;;;5.90;4.50;;;17.80;99.90;;;;;;5023121;28;20761;-81
2022/06/05 01:49:45;;;;;;;6.80;5.30;;;17.90;99.90;;;;;;5023323;28;21016;-86
2022/06/05 01:52:18;;;;;;;6.67;5.23;;;17.90;99.90;;;;;;5024048;28;20463;-82
2022/06/05 01:54:51;;;;;;;6.10;5.50;;;17.80;99.90;;;;;;5024560;28;20506;-83
2022/06/05 01:57:23;;;;;;;7.20;5.47;;;17.80;99.90;;;;;;5023491;28;20541;-83
2022/06/05 01:59:57;;;;;;;7.53;5.87;;;17.80;99.90;;;;;;5023515;28;20928;-83
2022/06/05 02:02:27;;;;;;;6.20;4.77;;;17.70;99.90;;;;;;5022803;28;20489;-82
2022/06/05 02:05:05;;;;;;;6.63;5.93;;;17.70;99.90;;;;;;5023263;28;20478;-83
2022/06/05 02:07:37;;;;;;;7.07;6.37;;;17.70;99.90;;;;;;5023134;28;20515;-83
2022/06/05 02:10:09;;;;;;;6.40;5.80;;;17.70;99.90;;;;;;5023670;28;21006;-82
2022/06/05 02:12:38;;;;;;;7.33;5.70;;;17.50;99.90;;;;;;5027899;28;20452;-84
2022/06/05 02:15:07;;;;;;;7.20;5.73;;;17.60;99.90;;;;;;5027353;28;20494;-84
2022/06/05 02:17:36;;;;;;;7.50;6.43;;;17.50;99.90;;;;;;5027415;28;20479;-83
2022/06/05 02:20:04;;;;;;;6.20;5.60;;;17.50;99.90;;;;;;5024732;28;20897;-83
2022/06/05 02:22:37;;;;;;;6.60;6.00;;;17.50;99.90;;;;;;5024046;28;20539;-81
2022/06/05 02:25:06;;;;;;;8.30;5.73;;;17.50;99.90;;;;;;5023477;28;20523;-82
2022/06/05 02:27:33;;;;;;;6.80;5.40;;;17.50;99.90;;;;;;5023126;28;20530;-82
2022/06/05 02:30:01;;;;;;;9.30;6.23;;;17.50;99.90;;;;;;5024860;28;20496;-81
2022/06/05 02:32:40;;;;;;;6.37;5.77;;;17.50;99.90;;;;;;5023679;28;20485;-82
2022/06/05 02:35:23;;;;;;;7.73;6.70;;;17.30;99.90;;;;;;5025450;28;20461;-82
2022/06/05 02:38:04;;;;;;;7.00;6.20;;;17.30;99.90;;;;;;5024241;28;20558;-84
2022/06/05 02:40:36;;;;;;;6.50;5.80;;;17.30;99.90;;;;;;5024069;28;20479;-82
2022/06/05 02:43:11;;;;;;;6.90;6.20;;;17.30;99.90;;;;;;5023764;28;20459;-83
2022/06/05 02:45:51;;;;;;;7.07;6.37;;;17.30;99.90;;;;;;5065410;23;20583;-80
2022/06/05 02:48:27;;;;;;;7.13;6.33;;;17.40;99.90;;;;;;5053377;28;20567;-80
2022/06/05 02:50:59;;;;;;;8.27;6.40;;;17.40;99.90;;;;;;5057483;28;20518;-80
2022/06/05 02:53:27;;;;;;;11.47;7.77;;;17.30;99.90;;;;;;5041701;28;20453;-81
2022/06/05 02:55:54;;;;;;;10.90;9.80;;;17.30;99.90;;;;;;5037209;28;20541;-80
2022/06/05 02:58:21;;;;;;;14.37;11.20;;;17.30;99.90;;;;;;5037908;28;20484;-80
2022/06/05 03:03:30;;;;;;;12.23;11.03;;;17.30;99.90;;;;;;5035998;28;20430;-80
2022/06/05 03:06:00;;;;;;;11.93;10.77;;;17.20;99.90;;;;;;5036777;28;20470;-80
2022/06/05 03:08:27;;;;;;;8.97;8.10;;;17.20;99.90;;;;;;5037332;28;20482;-80
2022/06/05 03:10:54;;;;;;;10.20;8.17;;;17.20;99.90;;;;;;5036571;28;20529;-79
2022/06/05 03:13:22;;;;;;;7.80;7.03;;;17.20;99.90;;;;;;5036749;28;20480;-79
2022/06/05 03:15:51;;;;;;;8.70;7.10;;;17.20;99.90;;;;;;5038105;28;20480;-80
2022/06/05 03:18:18;;;;;;;7.83;7.13;;;17.10;99.90;;;;;;5018663;28;20518;-80
2022/06/05 03:20:44;;;;;;;8.07;6.37;;;17.10;99.90;;;;;;5018279;28;20508;-80
2022/06/05 03:23:12;;;;;;;9.00;7.67;;;17.10;99.90;;;;;;5036831;28;20461;-80
2022/06/05 03:25:40;;;;;;;7.93;6.53;;;17.00;99.90;;;;;;5037871;28;20473;-80
2022/06/05 03:28:08;;;;;;;8.00;7.20;;;16.90;99.90;;;;;;5038896;28;20910;-81
2022/06/05 03:30:38;;;;;;;9.07;7.10;;;16.90;99.90;;;;;;5047361;28;20481;-79
2022/06/05 03:33:06;;;;;;;8.63;7.40;;;17.00;99.90;;;;;;5048077;28;20445;-81
2022/06/05 03:35:36;;;;;;;6.60;5.87;;;16.90;99.90;;;;;;5050412;28;20466;-79
2022/06/05 03:38:05;;;;;;;8.00;6.60;;;17.00;99.90;;;;;;5048130;28;20472;-79
2022/06/05 03:40:32;;;;;;;7.00;6.10;;;17.00;99.90;;;;;;5048884;28;20562;-80
2022/06/05 03:42:59;;;;;;;9.33;5.47;;;17.10;99.90;;;;;;5046981;28;20833;-82
2022/06/05 03:45:26;;;;;;;7.03;6.33;;;17.20;99.90;;;;;;5044384;28;21087;-80
2022/06/05 03:47:53;;;;;;;7.63;6.63;;;17.20;99.90;;;;;;5042326;28;21007;-81
2022/06/05 03:50:22;;;;;;;7.00;6.30;;;17.20;99.90;;;;;;5040896;28;20492;-79
2022/06/05 03:52:49;;;;;;;7.30;5.40;;;17.20;99.90;;;;;;5049026;28;20457;-80
2022/06/05 03:55:18;;;;;;;7.83;6.30;;;17.20;99.90;;;;;;5047114;28;20473;-81
2022/06/05 03:57:45;;;;;;;6.00;5.40;;;17.20;99.90;;;;;;5046335;28;20465;-80
2022/06/05 04:00:13;;;;;;;7.23;6.47;;;17.20;99.90;;;;;;5048040;28;20459;-80
2022/06/05 04:02:41;;;;;;;6.83;6.10;;;17.30;99.90;;;;;;5062301;28;21013;-80
2022/06/05 04:05:10;;;;;;;7.37;5.90;;;17.30;99.90;;;;;;5060339;28;20468;-81
2022/06/05 04:07:39;;;;;;;10.90;6.37;;;17.40;99.90;;;;;;5063450;28;20488;-81
2022/06/05 04:10:08;;;;;;;6.80;6.10;;;17.40;99.90;;;;;;5046859;28;20481;-80
2022/06/05 04:12:34;;;;;;;6.20;5.60;;;17.50;99.90;;;;;;5048654;28;20469;-82
2022/06/05 04:15:01;;;;;;;9.70;6.20;;;17.50;99.90;;;;;;5051231;28;20475;-81
2022/06/05 04:17:28;;;;;;;6.70;5.20;;;17.50;99.90;;;;;;5051272;28;20966;-83
2022/06/05 04:19:56;;;;;;;6.80;6.10;;;17.50;99.90;;;;;;5051420;28;20517;-82
2022/06/05 04:22:23;;;;;;;6.93;5.23;;;17.50;99.90;;;;;;5049903;28;20485;-81
2022/06/05 04:24:51;;;;;;;7.50;5.90;;;17.60;99.90;;;;;;5052656;28;20477;-81
2022/06/05 04:27:18;;;;;;;6.80;5.80;;;17.60;99.90;;;;;;5046330;28;20518;-77
2022/06/05 04:29:45;;;;;;;8.43;6.40;;;17.70;99.90;;;;;;5046295;28;20517;-79
2022/06/05 04:32:12;;;;;;;6.30;5.40;;;17.70;99.90;;;;;;5045425;28;20495;-80
2022/06/05 04:34:39;;;;;;;7.13;6.00;;;17.80;99.90;;;;;;5044903;28;20450;-81
2022/06/05 04:37:06;;;;;;;6.17;5.57;;;17.80;99.90;;;;;;5044719;28;20450;-81
2022/06/05 04:39:33;;;;;;;8.20;5.80;;;17.80;99.90;;;;;;5045236;28;20863;-81
2022/06/05 04:42:01;;;;;;;6.83;6.20;;;17.80;99.90;;;;;;5044177;28;20456;-82
2022/06/05 04:44:28;;;;;;;7.10;6.50;;;17.90;99.90;;;;;;5041855;28;20549;-78
2022/06/05 04:46:55;;;;;;;5.97;5.37;;;17.90;99.90;;;;;;5053747;28;20597;-79
2022/06/05 04:49:22;;;;;;;6.10;5.40;;;17.90;99.90;;;;;;5043696;28;20455;-79
2022/06/05 04:51:48;;;;;;;7.77;5.20;;;18.00;99.90;;;;;;5045196;28;20876;-80
2022/06/05 04:54:17;;;;;;;6.70;6.00;;;18.00;99.90;;;;;;5044888;28;20540;-80
2022/06/05 04:56:45;;;;;;;6.57;4.83;;;18.00;99.90;;;;;;5043792;28;21005;-79
2022/06/05 04:59:14;;;;;;;6.67;5.97;;;18.00;99.90;;;;;;5049484;28;20470;-79
2022/06/05 05:01:41;;;;;;;7.33;6.30;;;18.10;99.90;;;;;;5044630;28;20485;-80
2022/06/05 05:04:12;;;;;;;6.30;5.70;;;18.00;99.90;;;;;;5041572;28;20487;-80
2022/06/05 05:06:41;;;;;;;6.80;6.20;;;18.00;99.90;;;;;;5040992;28;20550;-81
2022/06/05 05:09:08;;;;;;;6.70;5.10;;;18.10;99.90;;;;;;5042295;28;20672;-80
2022/06/05 05:11:36;;;;;;;6.90;5.90;;;18.10;99.90;;;;;;5042523;28;20454;-79
2022/06/05 05:14:03;;;;;;;6.80;5.73;;;18.10;99.90;;;;;;5041192;28;20486;-81
2022/06/05 05:16:32;;;;;;;9.10;6.83;;;18.10;99.90;;;;;;5043030;28;20502;-80
2022/06/05 05:18:59;;;;;;;6.30;5.60;;;18.10;99.90;;;;;;5038145;28;20476;-79
2022/06/05 05:21:28;;;;;;;5.53;5.03;;;18.10;99.90;;;;;;5022384;28;20897;-78
2022/06/05 05:23:55;;;;;;;5.90;4.80;;;18.20;99.90;;;;;;5040381;28;20487;-81
2022/06/05 05:26:24;;;;;;;6.00;5.40;;;18.30;99.90;;;;;;5029750;28;20573;-80
2022/06/05 05:28:52;;;;;;;8.87;5.60;;;18.30;99.90;;;;;;5042563;28;21059;-80
2022/06/05 05:31:21;;;;;;;5.30;4.80;;;18.20;99.90;;;;;;5043054;28;20488;-80
2022/06/05 05:33:50;;;;;;;5.00;4.50;;;18.30;99.90;;;;;;5040726;28;20460;-79
2022/06/05 05:36:18;;;;;;;7.20;5.77;;;18.40;99.90;;;;;;5042963;28;20482;-80
2022/06/05 05:44:13;;;;;;;9.10;5.80;;;18.50;99.90;;;;;;5041424;28;20441;-78
2022/06/05 05:46:40;;;;;;;6.70;5.63;;;18.50;99.90;;;;;;5042360;28;20511;-80
2022/06/05 05:49:08;;;;;;;5.87;5.27;;;18.50;99.90;;;;;;5041434;28;21076;-79
2022/06/05 05:51:35;;;;;;;6.20;5.50;;;18.70;99.90;;;;;;5040540;28;20510;-79
2022/06/05 05:54:03;;;;;;;5.87;5.27;;;18.70;99.90;;;;;;5040906;28;20522;-80
2022/06/05 05:56:30;;;;;;;5.80;5.20;;;18.70;99.90;;;;;;5041332;28;20490;-81
2022/06/05 05:58:57;;;;;;;6.40;4.53;;;18.80;99.90;;;;;;5041996;28;20475;-80
2022/06/05 06:01:24;;;;;;;5.10;4.60;;;18.90;99.90;;;;;;5044564;28;20458;-79
2022/06/05 06:03:51;;;;;;;5.67;5.13;;;19.00;99.90;;;;;;5045440;28;20456;-81
2022/06/05 06:06:24;;;;;;;5.80;5.20;;;19.10;99.90;;;;;;5048013;28;20499;-79
2022/06/05 06:08:51;;;;;;;5.60;5.00;;;19.20;99.90;;;;;;5047653;28;20519;-80
2022/06/05 06:11:18;;;;;;;6.37;4.87;;;19.20;99.90;;;;;;5050413;28;20973;-79
2022/06/05 06:13:45;;;;;;;5.87;5.37;;;19.30;99.90;;;;;;5041268;28;20471;-80
2022/06/05 06:16:12;;;;;;;6.80;5.03;;;19.20;99.90;;;;;;5035281;28;20479;-80
2022/06/05 06:18:39;;;;;;;8.53;5.70;;;19.40;99.90;;;;;;5033107;28;20532;-80
2022/06/05 06:21:06;;;;;;;8.63;5.17;;;19.50;99.90;;;;;;5034329;28;20547;-80
2022/06/05 06:23:35;;;;;;;6.63;4.87;;;19.50;99.90;;;;;;5036224;28;20476;-78
2022/06/05 06:26:05;;;;;;;6.57;5.97;;;19.60;99.90;;;;;;5021460;28;20475;-81
2022/06/05 06:28:32;;;;;;;6.67;5.83;;;19.60;99.90;;;;;;5000796;28;20481;-81
2022/06/05 06:30:59;;;;;;;8.80;6.17;;;19.60;99.90;;;;;;5035535;28;20469;-80
2022/06/05 06:33:26;;;;;;;6.77;5.83;;;19.80;99.90;;;;;;5041245;28;20450;-80
2022/06/05 06:35:53;;;;;;;6.13;5.50;;;19.80;99.90;;;;;;5034438;28;20501;-80
2022/06/05 06:38:19;;;;;;;6.40;4.80;;;19.70;99.90;;;;;;5039875;28;20484;-79
2022/06/05 06:40:48;;;;;;;6.47;5.50;;;19.80;99.90;;;;;;5040829;28;20506;-78
2022/06/05 06:43:15;;;;;;;5.90;5.30;;;19.80;99.90;;;;;;5039732;28;20492;-81
2022/06/05 06:45:42;;;;;;;5.87;5.13;;;19.90;99.90;;;;;;5039141;28;20491;-79
2022/06/05 06:48:09;;;;;;;7.63;5.40;;;19.90;99.90;;;;;;5039833;28;20571;-79
2022/06/05 06:50:38;;;;;;;5.17;4.60;;;19.90;99.90;;;;;;5039922;28;20484;-80
2022/06/05 06:53:05;;;;;;;5.53;5.03;;;19.70;99.90;;;;;;5037718;28;20481;-79
2022/06/05 06:55:32;;;;;;;5.70;5.20;;;19.80;99.90;;;;;;5036063;28;20559;-79
2022/06/05 06:58:00;;;;;;;7.90;5.50;;;19.90;99.90;;;;;;5022116;28;20452;-80
2022/06/05 07:00:28;;;;;;;5.33;4.83;;;19.90;99.90;;;;;;5037556;28;20459;-80
2022/06/05 07:02:54;;;;;;;6.80;5.93;;;19.90;99.90;;;;;;5038171;28;20471;-79
2022/06/05 07:05:21;;;;;;;6.20;5.00;;;19.80;99.90;;;;;;5038565;28;20309;-79
2022/06/05 07:07:48;;;;;;;6.10;5.03;;;19.90;99.90;;;;;;5039110;28;20495;-79
2022/06/05 07:10:15;;;;;;;6.53;5.57;;;20.00;99.90;;;;;;5038409;28;20488;-80
2022/06/05 07:12:42;;;;;;;8.47;5.20;;;20.10;99.90;;;;;;5036521;28;20889;-79
2022/06/05 07:15:11;;;;;;;8.00;5.23;;;20.00;99.90;;;;;;5037812;28;20496;-79
2022/06/05 07:17:38;;;;;;;6.77;5.30;;;20.10;99.90;;;;;;5036731;28;20453;-79
2022/06/05 07:20:06;;;;;;;5.50;5.00;;;20.20;99.90;;;;;;5041634;28;20457;-81
2022/06/05 07:22:34;;;;;;;6.00;5.40;;;20.40;99.90;;;;;;5036464;28;20536;-78
2022/06/05 07:25:01;;;;;;;6.87;4.93;;;20.40;99.90;;;;;;5044439;28;20569;-80
2022/06/05 07:27:29;;;;;;;5.53;4.40;;;20.50;99.90;;;;;;5044571;28;20487;-78
2022/06/05 07:29:56;;;;;;;5.80;5.30;;;20.70;99.90;;;;;;5045399;28;20499;-79
2022/06/05 07:32:24;;;;;;;6.73;4.70;;;20.70;99.90;;;;;;5044556;28;20477;-80
2022/06/05 07:34:51;;;;;;;5.07;4.40;;;20.80;99.90;;;;;;5044504;28;20448;-80
2022/06/05 07:37:19;;;;;;;6.03;4.93;;;20.90;99.90;;;;;;5044925;28;20480;-78
2022/06/05 07:39:45;;;;;;;5.20;4.70;;;20.90;99.90;;;;;;5032814;28;21001;-79
2022/06/05 07:42:12;;;;;;;5.30;4.80;;;21.00;99.90;;;;;;5040337;28;20487;-80
2022/06/05 07:44:39;;;;;;;7.27;5.33;;;21.10;99.90;;;;;;5041361;28;20492;-81
2022/06/05 07:47:07;;;;;;;5.13;4.27;;;21.00;99.90;;;;;;5043371;28;20475;-79
2022/06/05 07:49:39;;;;;;;5.63;5.13;;;21.10;99.90;;;;;;5042163;28;20488;-80
2022/06/05 07:54:50;;;;;;;5.47;4.60;;;21.30;99.90;;;;;;5043486;28;20432;-80
2022/06/05 07:57:18;;;;;;;5.20;4.37;;;21.40;99.90;;;;;;5040705;28;20449;-80
2022/06/05 07:59:49;;;;;;;6.73;5.73;;;21.40;99.90;;;;;;5043760;28;20945;-81
2022/06/05 08:02:19;;;;;;;6.83;5.17;;;21.50;99.90;;;;;;5045081;28;20517;-81
2022/06/05 08:04:48;;;;;;;5.60;4.50;;;21.60;99.90;;;;;;5041320;28;20487;-80
2022/06/05 08:07:18;;;;;;;6.13;5.50;;;21.70;99.90;;;;;;5041985;28;20484;-81
2022/06/05 08:09:45;;;;;;;5.07;4.57;;;21.70;99.90;;;;;;5041604;28;20516;-81
2022/06/05 08:12:14;;;;;;;6.97;4.97;;;21.90;99.90;;;;;;5035491;28;20526;-77
2022/06/05 08:14:43;;;;;;;6.37;5.67;;;22.00;99.90;;;;;;5033640;28;20528;-78
2022/06/05 08:17:13;;;;;;;5.67;5.17;;;22.10;99.90;;;;;;5037618;28;20839;-79
2022/06/05 08:19:41;;;;;;;6.20;5.20;;;22.10;99.90;;;;;;5037012;28;20473;-76
2022/06/05 08:22:11;;;;;;;5.83;5.10;;;22.20;99.90;;;;;;5032691;28;20448;-78
2022/06/05 08:24:39;;;;;;;7.83;5.30;;;22.30;99.90;;;;;;5031693;28;20543;-77
2022/06/05 08:27:07;;;;;;;7.47;5.00;;;22.40;99.90;;;;;;5031796;28;20548;-77
2022/06/05 08:29:33;;;;;;;6.17;5.57;;;22.80;99.90;;;;;;5031427;28;20486;-79
2022/06/05 08:32:00;;;;;;;5.43;4.93;;;22.90;99.90;;;;;;5033117;28;20452;-77
2022/06/05 08:34:27;;;;;;;6.03;5.43;;;23.20;99.90;;;;;;5031771;28;20459;-78
2022/06/05 08:42:28;;;;;;;5.83;4.60;;;23.80;99.90;;;;;;5031603;28;20436;-79
2022/06/05 08:44:59;;;;;;;4.90;4.40;;;24.10;99.90;;;;;;5015133;28;20479;-80
2022/06/05 08:47:30;;;;;;;5.63;4.60;;;24.50;99.90;;;;;;5082281;23;21534;-82
2022/06/05 08:50:06;;;;;;;11.00;5.37;;;24.60;99.90;;;;;;5035771;28;20485;-81
2022/06/05 08:52:41;;;;;;;5.33;4.70;;;24.50;99.90;;;;;;5035617;28;20992;-79
2022/06/05 08:55:16;;;;;;;6.60;4.90;;;24.30;99.90;;;;;;5037041;28;20564;-82
2022/06/05 08:57:50;;;;;;;6.43;5.83;;;24.00;99.90;;;;;;5040222;28;20558;-80
2022/06/05 09:00:21;;;;;;;5.93;5.17;;;24.00;99.90;;;;;;5040163;28;20456;-81
2022/06/05 09:02:53;;;;;;;5.90;4.50;;;23.80;99.90;;;;;;5038232;28;20456;-79
2022/06/05 09:05:24;;;;;;;5.27;4.70;;;24.10;99.90;;;;;;5038375;28;20488;-80
2022/06/05 09:07:55;;;;;;;6.20;4.90;;;24.30;99.90;;;;;;5039313;28;20572;-80
2022/06/05 09:10:33;;;;;;;6.33;4.93;;;24.50;99.90;;;;;;5049088;28;20472;-81
2022/06/05 09:13:07;;;;;;;6.20;5.60;;;24.70;99.90;;;;;;5053428;28;20456;-80
2022/06/05 09:15:39;;;;;;;5.00;4.37;;;24.60;99.90;;;;;;5050866;28;20441;-79
2022/06/05 09:18:15;;;;;;;5.20;4.70;;;24.60;99.90;;;;;;5037644;28;20473;-80
2022/06/05 09:20:51;;;;;;;5.27;4.77;;;24.90;99.90;;;;;;5038073;28;20452;-80
2022/06/05 09:23:23;;;;;;;5.77;5.07;;;24.90;99.90;;;;;;5037918;28;20467;-80
2022/06/05 09:26:12;;;;;;;6.30;5.00;;;24.80;99.90;;;;;;5038941;28;20882;-80
2022/06/05 09:29:07;;;;;;;8.60;5.20;;;24.80;99.90;;;;;;5040041;28;20560;-79
2022/06/05 09:32:16;;;;;;;6.07;4.73;;;24.70;99.90;;;;;;5039657;28;20601;-81
2022/06/05 09:34:52;;;;;;;4.63;4.13;;;24.50;99.90;;;;;;4990421;28;20506;-80
2022/06/05 09:37:26;;;;;;;6.23;5.10;;;24.50;99.90;;;;;;5041579;28;20454;-82
2022/06/05 09:39:55;;;;;;;5.20;4.50;;;24.20;99.90;;;;;;5039583;28;20481;-80
2022/06/05 09:42:37;;;;;;;5.13;4.70;;;24.10;99.90;;;;;;5036441;28;20491;-81
2022/06/05 09:45:16;;;;;;;5.20;4.70;;;24.00;99.90;;;;;;5036745;28;20429;-80
2022/06/05 09:47:54;;;;;;;6.10;5.57;;;23.80;99.90;;;;;;5036830;28;20504;-81
2022/06/05 09:50:25;;;;;;;5.73;4.83;;;23.50;99.90;;;;;;5039804;28;20523;-80
2022/06/05 09:52:52;;;;;;;5.50;4.77;;;23.50;99.90;;;;;;5039608;28;20456;-79
2022/06/05 09:55:21;;;;;;;6.23;5.23;;;23.50;99.90;;;;;;5038889;28;20449;-82
2022/06/05 10:00:50;;;;;;;6.03;5.43;;;23.30;99.90;;;;;;5040620;28;20479;-81
2022/06/05 10:03:21;;;;;;;6.30;5.40;;;23.00;99.90;;;;;;5040018;28;20484;-80
2022/06/05 10:06:17;;;;;;;5.07;4.53;;;23.20;99.90;;;;;;5041615;28;20957;-81
2022/06/05 10:08:46;;;;;;;5.10;4.40;;;23.50;99.90;;;;;;5042733;28;20496;-82
2022/06/05 10:11:23;;;;;;;6.00;5.00;;;23.70;99.90;;;;;;5042015;28;20457;-80
2022/06/05 10:13:59;;;;;;;5.93;4.80;;;23.80;99.90;;;;;;5047640;28;20870;-81
2022/06/05 10:16:32;;;;;;;6.30;5.27;;;23.80;99.90;;;;;;5059834;28;20459;-81
2022/06/05 10:19:16;;;;;;;6.47;5.43;;;23.60;99.90;;;;;;5059871;28;20491;-79
2022/06/05 10:21:52;;;;;;;4.77;4.37;;;23.50;99.90;;;;;;5059374;28;20440;-81
2022/06/05 10:24:29;;;;;;;5.70;5.20;;;23.40;99.90;;;;;;5042405;28;20483;-81
2022/06/05 10:26:59;;;;;;;5.17;4.67;;;23.40;99.90;;;;;;5055392;28;20480;-80
2022/06/05 10:29:32;;;;;;;5.70;5.10;;;23.40;99.90;;;;;;5047081;28;20488;-81
2022/06/05 10:32:06;;;;;;;5.70;5.20;;;23.40;99.90;;;;;;5055871;28;20440;-81
2022/06/05 10:34:41;;;;;;;6.53;5.53;;;23.40;99.90;;;;;;5037865;28;20471;-79
2022/06/05 10:37:19;;;;;;;5.60;4.53;;;23.50;99.90;;;;;;5039293;28;20482;-81
2022/06/05 10:40:00;;;;;;;5.37;4.87;;;23.60;99.90;;;;;;5038502;28;20836;-80
2022/06/05 10:42:33;;;;;;;5.60;5.00;;;23.70;99.90;;;;;;5054215;28;20542;-82
2022/06/05 10:45:14;;;;;;;5.50;5.00;;;23.40;99.90;;;;;;5026299;28;20467;-81
2022/06/05 10:47:45;;;;;;;6.00;5.50;;;23.50;99.90;;;;;;5058103;28;20476;-81
2022/06/05 10:50:18;;;;;;;5.97;5.47;;;23.40;99.90;;;;;;5044622;28;20556;-81
2022/06/05 10:52:53;;;;;;;5.90;5.40;;;23.50;99.90;;;;;;5038750;28;20453;-79
2022/06/05 10:55:31;;;;;;;7.37;6.03;;;23.40;99.90;;;;;;5051894;28;20528;-80
2022/06/05 10:58:08;;;;;;;8.53;6.03;;;23.30;99.90;;;;;;5038431;28;20483;-79
2022/06/05 11:00:52;;;;;;;7.30;5.87;;;23.00;99.90;;;;;;5054507;28;20452;-80
2022/06/05 11:03:27;;;;;;;6.07;5.30;;;23.00;99.90;;;;;;5057688;28;20455;-79
2022/06/05 11:06:19;;;;;;;5.83;5.23;;;22.90;99.90;;;;;;5058907;28;20465;-80
2022/06/05 11:09:00;;;;;;;5.53;4.90;;;22.90;99.90;;;;;;5058365;28;20857;-80
2022/06/05 11:14:25;;;;;;;6.23;5.37;;;22.50;99.90;;;;;;5043280;28;20960;-81
2022/06/05 11:16:57;;;;;;;7.30;6.70;;;22.30;99.90;;;;;;5057892;28;20487;-79
2022/06/05 11:19:34;;;;;;;5.87;5.37;;;22.10;99.90;;;;;;5059649;28;20519;-79
2022/06/05 11:22:03;;;;;;;6.10;5.50;;;22.00;99.90;;;;;;5060126;28;20447;-79
2022/06/05 11:24:34;;;;;;;7.03;6.43;;;21.80;99.90;;;;;;5040058;28;20537;-79
2022/06/05 11:27:10;;;;;;;7.40;6.80;;;21.50;99.90;;;;;;5041641;28;20527;-80
2022/06/05 11:29:50;;;;;;;6.37;5.77;;;21.30;99.90;;;;;;5042625;28;20565;-80
2022/06/05 11:32:28;;;;;;;6.63;6.03;;;21.30;99.90;;;;;;5041357;28;20458;-79
2022/06/05 11:35:01;;;;;;;7.07;6.47;;;21.40;99.90;;;;;;5049388;28;20456;-79
2022/06/05 11:37:42;;;;;;;8.53;7.73;;;21.50;99.90;;;;;;5035446;28;20460;-80
2022/06/05 11:40:20;;;;;;;7.33;6.63;;;21.50;99.90;;;;;;5043390;28;20469;-79
2022/06/05 11:43:04;;;;;;;7.83;6.83;;;21.60;99.90;;;;;;5042784;28;20720;-79
2022/06/05 11:45:50;;;;;;;8.73;7.90;;;21.70;99.90;;;;;;5044305;28;20919;-79
2022/06/05 11:48:25;;;;;;;8.47;7.67;;;21.80;99.90;;;;;;5062651;28;20503;-79
2022/06/05 11:51:00;;;;;;;10.33;7.53;;;21.90;99.90;;;;;;5062767;28;20511;-81
2022/06/05 11:53:35;;;;;;;9.13;7.87;;;21.90;99.90;;;;;;5062674;28;20467;-79
2022/06/05 11:56:31;;;;;;;9.10;7.90;;;21.80;99.90;;;;;;5061700;28;20837;-79
2022/06/05 11:59:08;;;;;;;8.83;8.03;;;21.80;99.90;;;;;;5052650;28;21041;-80
2022/06/05 12:01:43;;;;;;;7.47;6.77;;;21.80;99.90;;;;;;5059701;28;20444;-79
2022/06/05 12:04:20;;;;;;;9.33;8.53;;;21.70;99.90;;;;;;5054483;28;20455;-79
2022/06/05 12:06:51;;;;;;;12.20;8.57;;;21.70;99.90;;;;;;5054033;28;20436;-78
2022/06/05 12:09:21;;;;;;;9.00;8.30;;;21.70;99.90;;;;;;5055306;28;20487;-78
2022/06/05 12:11:56;;;;;;;8.43;7.73;;;21.60;99.90;;;;;;5057484;28;20531;-78
2022/06/05 12:14:29;;;;;;;9.57;7.40;;;21.70;99.90;;;;;;5060216;28;20475;-78
2022/06/05 12:17:12;;;;;;;10.67;9.07;;;21.80;99.90;;;;;;5061005;28;20452;-79
2022/06/05 12:20:00;;;;;;;8.67;7.87;;;21.90;99.90;;;;;;5060943;28;20490;-79
2022/06/05 12:22:33;;;;;;;8.20;7.50;;;22.30;99.90;;;;;;5060491;28;20448;-80
2022/06/05 12:25:14;;;;;;;8.37;7.57;;;22.50;99.90;;;;;;5058732;28;20499;-77
2022/06/05 12:27:57;;;;;;;10.17;7.93;;;23.00;99.90;;;;;;5059504;28;20507;-80
2022/06/05 12:30:28;;;;;;;7.80;7.10;;;23.70;99.90;;;;;;5058138;28;20495;-79
2022/06/05 12:33:00;;;;;;;9.07;8.27;;;24.30;99.90;;;;;;5061585;28;20494;-79
2022/06/05 12:35:33;;;;;;;8.00;7.20;;;24.60;99.90;;;;;;5062219;28;20486;-80
2022/06/05 12:38:18;;;;;;;7.90;7.20;;;24.70;99.90;;;;;;5062467;28;20539;-80
2022/06/05 12:40:54;;;;;;;8.73;7.97;;;24.90;99.90;;;;;;5060497;28;20455;-77
2022/06/05 12:43:28;;;;;;;7.80;5.93;;;25.10;99.90;;;;;;5059076;28;20518;-79
2022/06/05 12:46:02;;;;;;;6.60;6.00;;;25.40;99.90;;;;;;5060221;28;20451;-80
2022/06/05 12:48:31;;;;;;;6.97;6.07;;;25.60;99.90;;;;;;5058985;28;20890;-78
2022/06/05 12:51:03;;;;;;;6.67;6.07;;;25.50;99.90;;;;;;5060338;28;20480;-80
2022/06/05 12:53:38;;;;;;;5.97;5.47;;;25.80;99.90;;;;;;5061672;28;20478;-81
2022/06/05 12:56:21;;;;;;;6.07;5.53;;;26.20;99.90;;;;;;5062850;28;20471;-81
2022/06/05 12:58:55;;;;;;;5.50;5.00;;;26.60;99.90;;;;;;5061197;28;20479;-80
2022/06/05 13:01:27;;;;;;;6.23;5.73;;;27.10;99.90;;;;;;5056839;28;20821;-80
2022/06/05 13:04:01;;;;;;;5.70;5.20;;;27.20;99.90;;;;;;5040105;28;20488;-81
2022/06/05 13:06:42;;;;;;;5.83;5.33;;;27.20;99.90;;;;;;5045592;28;20990;-82
2022/06/05 13:09:19;;;;;;;5.53;5.03;;;27.60;99.90;;;;;;5041589;28;20484;-80
2022/06/05 13:11:54;;;;;;;5.80;5.23;;;27.90;99.90;;;;;;5045572;28;20483;-79
2022/06/05 13:14:35;;;;;;;5.57;5.07;;;28.20;99.90;;;;;;5035655;28;20453;-83
2022/06/05 13:17:18;;;;;;;5.40;4.90;;;29.50;99.90;;;;;;5034955;28;20468;-82
2022/06/05 13:19:52;;;;;;;5.30;4.80;;;30.50;99.90;;;;;;5037753;28;20468;-79
2022/06/05 13:22:27;;;;;;;4.87;4.47;;;30.30;99.90;;;;;;5042795;28;20449;-80
2022/06/05 13:25:00;;;;;;;6.03;4.80;;;30.70;99.90;;;;;;5039272;28;20448;-81
2022/06/05 13:27:49;;;;;;;5.23;4.03;;;31.30;99.90;;;;;;5055423;28;20475;-79
2022/06/05 13:30:19;;;;;;;6.33;5.20;;;30.20;99.90;;;;;;5058459;28;20483;-81
2022/06/05 13:33:00;;;;;;;5.87;5.03;;;29.60;99.90;;;;;;5059648;28;20873;-80
2022/06/05 13:35:40;;;;;;;5.67;5.17;;;28.90;99.90;;;;;;5048349;28;20787;-80